createdAt,value
2023-03-07T00:00:38.728Z,100042.59
2023-03-07T00:03:08.676Z,100032.72
2023-03-07T00:05:37.072Z,100034.25
2023-03-07T00:08:06.341Z,100019.56
2023-03-07T00:10:34.912Z,100039.69
2023-03-07T00:13:04.081Z,100009.53
2023-03-07T00:15:32.611Z,99992.03
2023-03-07T00:18:01.112Z,99951.88
2023-03-07T00:20:31.150Z,100027.72
2023-03-07T00:22:59.578Z,100030.38
2023-03-07T00:25:28.010Z,100036.22
2023-03-07T00:27:56.437Z,100036.38
2023-03-07T00:30:25.284Z,100036.22
2023-03-07T00:32:53.677Z,99976.47
2023-03-07T00:35:22.062Z,100025.66
2023-03-07T00:37:51.885Z,100024.13
2023-03-07T00:40:20.364Z,100017.31
2023-03-07T00:42:48.712Z,100002.88
2023-03-07T00:45:17.244Z,100006.19
2023-03-07T00:47:45.798Z,100026.09
2023-03-07T00:50:14.611Z,99972.31
2023-03-07T00:52:43.057Z,99993.97
2023-03-07T00:55:13.133Z,100003.16
2023-03-07T00:57:42.025Z,100014.13
2023-03-07T01:00:12.604Z,100019.25
2023-03-07T01:02:40.927Z,100013.00
2023-03-07T01:05:10.712Z,100008.28
2023-03-07T01:07:39.112Z,100004.81
2023-03-07T01:10:08.806Z,99966.47
2023-03-07T01:12:39.101Z,100012.84
2023-03-07T01:15:08.989Z,100012.28
2023-03-07T01:17:38.501Z,100004.66
2023-03-07T01:20:09.820Z,100003.25
2023-03-07T01:22:38.206Z,99998.50
2023-03-07T01:25:08.955Z,99981.00
2023-03-07T01:27:38.728Z,100003.09
2023-03-07T01:30:09.191Z,99999.63
2023-03-07T01:32:39.707Z,99995.72
2023-03-07T01:35:09.438Z,99991.13
2023-03-07T01:37:38.244Z,99971.84
2023-03-07T01:40:10.028Z,99983.44
2023-03-07T01:42:39.817Z,99984.41
2023-03-07T01:45:43.583Z,99972.56
2023-03-07T01:48:12.060Z,99913.16
2023-03-07T01:50:41.578Z,99969.81
2023-03-07T01:53:10.797Z,99968.75
2023-03-07T01:55:39.585Z,99970.84
2023-03-07T01:58:16.467Z,99935.25
2023-03-07T02:00:47.390Z,99957.78
2023-03-07T02:03:23.448Z,99951.91
2023-03-07T02:05:57.685Z,99948.47
2023-03-07T02:08:29.828Z,99955.78
2023-03-07T02:10:58.493Z,99909.97
2023-03-07T02:13:28.323Z,99951.28
2023-03-07T02:15:57.990Z,99941.81
2023-03-07T02:18:29.869Z,99910.97
2023-03-07T02:21:09.292Z,99860.38
2023-03-07T02:23:47.044Z,99937.50
2023-03-07T02:26:23.023Z,99928.47
2023-03-07T02:28:53.740Z,99929.06
2023-03-07T02:31:22.433Z,99879.09
2023-03-07T02:33:50.853Z,99851.88
2023-03-07T02:36:24.798Z,99930.84
2023-03-07T02:39:07.676Z,99854.75
2023-03-07T02:41:39.123Z,99937.75
2023-03-07T02:44:15.742Z,99937.75
2023-03-07T02:46:44.241Z,99896.91
2023-03-07T02:49:12.748Z,99887.53
2023-03-07T02:51:41.362Z,99901.19
2023-03-07T02:54:10.354Z,99932.44
2023-03-07T02:56:38.957Z,99924.78
2023-03-07T02:59:07.562Z,99920.38
2023-03-07T03:01:38.551Z,99918.97
2023-03-07T03:04:06.880Z,99897.28
2023-03-07T03:06:35.316Z,99905.75
2023-03-07T03:09:04.241Z,99901.69
2023-03-07T03:11:34.047Z,99907.13
2023-03-07T03:14:06.682Z,99912.53
2023-03-07T03:16:36.560Z,99903.41
2023-03-07T03:19:05.042Z,99906.47
2023-03-07T03:21:33.950Z,99902.91
2023-03-07T03:24:06.894Z,99875.38
2023-03-07T03:26:36.644Z,99899.75
2023-03-07T03:29:06.667Z,99858.91
2023-03-07T03:31:37.297Z,99875.91
2023-03-07T03:34:07.313Z,99869.19
2023-03-07T03:36:35.888Z,99856.66
2023-03-07T03:39:11.012Z,99882.50
2023-03-07T03:41:45.934Z,99887.09
2023-03-07T03:44:15.134Z,99853.09
2023-03-07T03:46:45.059Z,99879.81
2023-03-07T03:49:14.403Z,99849.91
2023-03-07T03:51:43.848Z,99870.69
2023-03-07T03:54:12.341Z,99873.13
2023-03-07T03:56:40.742Z,99877.63
2023-03-07T03:59:09.702Z,99875.09
2023-03-07T04:01:38.064Z,99854.56
2023-03-07T04:04:08.639Z,99872.50
2023-03-07T04:06:38.513Z,99821.78
2023-03-07T04:09:06.971Z,99855.31
2023-03-07T04:11:38.089Z,99826.81
2023-03-07T04:14:06.596Z,99858.63
2023-03-07T04:16:35.271Z,99829.31
2023-03-07T04:19:03.775Z,99851.88
2023-03-07T04:21:33.868Z,99836.75
2023-03-07T04:24:02.504Z,99862.59
2023-03-07T04:26:34.046Z,99859.47
2023-03-07T04:29:02.685Z,99838.22
2023-03-07T04:31:34.078Z,99858.72
2023-03-07T04:34:04.884Z,99859.50
2023-03-07T04:36:35.027Z,99857.94
2023-03-07T04:39:03.454Z,99853.38
2023-03-07T04:41:33.050Z,99839.72
2023-03-07T04:44:06.613Z,99840.41
2023-03-07T04:46:35.015Z,99823.47
2023-03-07T04:49:03.506Z,99848.56
2023-03-07T04:51:32.083Z,99815.56
2023-03-07T04:54:02.571Z,99803.34
2023-03-07T04:56:31.257Z,99842.63
2023-03-07T04:59:02.132Z,99840.00
2023-03-07T05:01:30.618Z,99844.91
2023-03-07T05:03:59.929Z,99844.53
2023-03-07T05:06:29.516Z,99841.16
2023-03-07T05:08:58.443Z,99816.34
2023-03-07T05:11:28.202Z,99822.88
2023-03-07T05:13:56.987Z,99840.53
2023-03-07T05:16:25.457Z,99832.47
2023-03-07T05:18:53.968Z,99834.69
2023-03-07T05:21:22.541Z,99832.88
2023-03-07T05:23:51.491Z,99822.63
2023-03-07T05:26:20.505Z,99727.19
2023-03-07T05:28:50.848Z,99818.06
2023-03-07T05:31:20.093Z,99801.38
2023-03-07T05:33:48.559Z,99773.63
2023-03-07T05:36:17.609Z,99826.31
2023-03-07T05:38:46.099Z,99818.41
2023-03-07T05:41:14.478Z,99817.56
2023-03-07T05:43:46.039Z,99826.16
2023-03-07T05:46:15.993Z,99829.34
2023-03-07T05:48:44.625Z,99824.53
2023-03-07T05:51:13.240Z,99830.78
2023-03-07T05:53:42.210Z,99786.00
2023-03-07T05:56:11.120Z,99727.88
2023-03-07T05:58:39.705Z,99814.03
2023-03-07T06:01:09.093Z,99843.44
2023-03-07T06:03:39.084Z,99843.84
2023-03-07T06:06:57.821Z,99839.00
2023-03-07T06:09:26.266Z,99829.72
2023-03-07T06:11:56.622Z,99835.81
2023-03-07T06:14:25.780Z,99837.75
2023-03-07T06:16:54.188Z,99831.78
2023-03-07T06:19:24.173Z,99808.06
2023-03-07T06:21:53.899Z,99831.22
2023-03-07T06:24:22.320Z,99816.09
2023-03-07T06:26:51.069Z,99832.06
2023-03-07T06:29:22.320Z,99836.47
2023-03-07T06:31:51.248Z,99829.13
2023-03-07T06:34:19.947Z,99816.81
2023-03-07T06:36:50.698Z,99828.66
2023-03-07T06:39:21.595Z,99808.50
2023-03-07T06:41:53.477Z,99739.41
2023-03-07T06:44:21.984Z,99840.41
2023-03-07T06:46:50.585Z,99798.34
2023-03-07T06:49:22.500Z,99838.16
2023-03-07T06:51:52.923Z,99838.72
2023-03-07T06:54:21.871Z,99825.56
2023-03-07T06:56:51.639Z,99701.19
2023-03-07T06:59:23.947Z,99844.38
2023-03-07T07:01:52.593Z,99861.28
2023-03-07T07:04:22.557Z,99829.28
2023-03-07T07:06:53.380Z,99818.78
2023-03-07T07:09:21.919Z,99735.63
2023-03-07T07:11:50.810Z,99862.56
2023-03-07T07:14:19.539Z,99870.88
2023-03-07T07:16:48.179Z,99869.06
2023-03-07T07:19:16.787Z,99842.06
2023-03-07T07:21:45.320Z,99877.19
2023-03-07T07:24:15.814Z,99883.38
2023-03-07T07:26:44.543Z,99891.28
2023-03-07T07:29:13.131Z,99882.72
2023-03-07T07:31:42.146Z,99887.06
2023-03-07T07:34:10.763Z,99889.94
2023-03-07T07:36:39.313Z,99864.63
2023-03-07T07:39:10.571Z,99887.97
2023-03-07T07:41:44.349Z,99826.16
2023-03-07T07:44:13.409Z,99883.31
2023-03-07T07:46:54.306Z,99844.38
2023-03-07T07:49:24.753Z,99821.41
2023-03-07T07:51:54.984Z,99906.81
2023-03-07T07:54:25.618Z,99862.94
2023-03-07T07:56:57.537Z,99879.25
2023-03-07T07:59:31.760Z,99882.78
2023-03-07T08:02:00.288Z,99848.94
2023-03-07T08:04:29.322Z,99895.25
2023-03-07T08:06:57.793Z,99886.81
2023-03-07T08:09:27.278Z,99830.44
2023-03-07T08:11:57.012Z,99918.03
2023-03-07T08:14:25.596Z,99919.56
2023-03-07T08:16:54.501Z,99894.44
2023-03-07T08:19:22.850Z,99925.63
2023-03-07T08:21:51.415Z,99916.03
2023-03-07T08:24:21.798Z,99913.94
2023-03-07T08:26:51.696Z,99909.34
2023-03-07T08:29:21.970Z,99912.19
2023-03-07T08:31:51.925Z,99908.28
2023-03-07T08:34:20.372Z,99883.63
2023-03-07T08:36:49.058Z,99917.78
2023-03-07T08:39:17.616Z,99875.97
2023-03-07T08:41:46.072Z,99916.44
2023-03-07T08:44:14.631Z,99916.75
2023-03-07T08:46:44.417Z,99917.28
2023-03-07T08:49:13.334Z,99877.88
2023-03-07T08:51:41.992Z,99923.81
2023-03-07T08:54:10.531Z,99915.06
2023-03-07T08:56:39.221Z,99919.50
2023-03-07T08:59:07.727Z,99908.97
2023-03-07T09:01:36.171Z,99909.66
2023-03-07T09:04:06.345Z,99870.50
2023-03-07T09:06:34.945Z,99911.47
2023-03-07T09:09:03.817Z,99882.03
2023-03-07T09:11:32.223Z,99755.31
2023-03-07T09:14:00.590Z,99876.75
2023-03-07T09:16:28.976Z,99919.13
2023-03-07T09:18:57.540Z,99920.34
2023-03-07T09:21:27.271Z,99933.44
2023-03-07T09:23:55.728Z,99904.81
2023-03-07T09:26:24.176Z,99936.88
2023-03-07T09:28:52.664Z,99873.00
2023-03-07T09:31:21.349Z,99929.38
2023-03-07T09:33:49.800Z,99928.13
2023-03-07T09:36:19.677Z,99935.06
2023-03-07T09:38:49.615Z,99903.16
2023-03-07T09:41:49.905Z,99937.00
2023-03-07T09:44:34.268Z,99936.44
2023-03-07T09:48:10.525Z,99932.28
2023-03-07T09:50:49.373Z,99896.47
2023-03-07T09:53:25.623Z,99937.84
2023-03-07T09:56:09.683Z,99937.69
2023-03-07T09:58:45.406Z,99930.50
2023-03-07T10:01:17.067Z,99927.31
2023-03-07T10:03:55.556Z,99925.34
2023-03-07T10:06:31.505Z,99927.28
2023-03-07T10:09:01.769Z,99899.53
2023-03-07T10:11:54.424Z,99888.00
2023-03-07T10:14:48.824Z,99923.00
2023-03-07T10:17:30.968Z,99857.19
2023-03-07T10:20:09.141Z,99924.66
2023-03-07T10:22:46.370Z,99921.69
2023-03-07T10:25:27.432Z,99921.19
2023-03-07T10:28:10.212Z,99916.78
2023-03-07T10:30:39.048Z,99920.34
2023-03-07T10:33:17.264Z,99903.09
2023-03-07T10:35:51.253Z,99903.84
2023-03-07T10:38:29.680Z,99888.56
2023-03-07T10:41:03.462Z,99923.25
2023-03-07T10:43:35.456Z,99879.41
2023-03-07T10:46:24.589Z,99919.19
2023-03-07T10:48:56.445Z,99928.41
2023-03-07T10:51:51.522Z,99931.25
2023-03-07T10:54:23.510Z,99864.00
2023-03-07T10:57:09.709Z,99888.72
2023-03-07T10:59:43.581Z,99861.31
2023-03-07T11:02:35.969Z,99925.41
2023-03-07T11:05:19.621Z,99907.84
2023-03-07T11:07:48.079Z,99918.53
2023-03-07T11:10:37.269Z,99901.63
2023-03-07T11:13:15.209Z,99872.09
2023-03-07T11:15:45.567Z,99904.38
2023-03-07T11:18:29.982Z,99899.09
2023-03-07T11:21:00.277Z,99895.69
2023-03-07T11:23:31.608Z,99932.19
2023-03-07T11:26:17.263Z,99880.00
2023-03-07T11:28:45.838Z,99939.53
2023-03-07T11:31:28.577Z,99943.50
2023-03-07T11:34:06.632Z,99941.31
2023-03-07T11:36:37.838Z,99896.84
2023-03-07T11:39:17.724Z,99886.91
2023-03-07T11:41:49.271Z,99891.06
2023-03-07T11:44:33.694Z,99922.47
2023-03-07T11:47:34.682Z,99909.53
2023-03-07T11:50:17.773Z,99924.63
2023-03-07T11:53:31.291Z,99919.81
2023-03-07T11:56:24.948Z,99916.25
2023-03-07T11:59:40.542Z,99923.19
2023-03-07T12:02:38.563Z,99883.13
2023-03-07T12:05:37.689Z,99931.81
2023-03-07T12:08:37.201Z,99910.31
2023-03-07T12:11:23.502Z,99918.25
2023-03-07T12:14:01.918Z,99938.81
2023-03-07T12:16:43.364Z,99933.28
2023-03-07T12:19:44.236Z,99934.41
2023-03-07T12:22:28.990Z,99887.16
2023-03-07T12:25:23.507Z,99899.47
2023-03-07T12:28:12.095Z,99925.81
2023-03-07T12:30:56.034Z,99914.69
2023-03-07T12:33:38.688Z,99893.69
2023-03-07T12:36:18.507Z,99883.31
2023-03-07T12:38:53.990Z,99931.75
2023-03-07T12:41:40.348Z,99929.31
2023-03-07T12:44:17.476Z,99920.34
2023-03-07T12:46:52.411Z,99926.63
2023-03-07T12:49:35.695Z,99902.63
2023-03-07T12:52:17.631Z,99925.47
2023-03-07T12:54:54.607Z,99907.97
2023-03-07T12:57:29.815Z,99867.34
2023-03-07T13:00:05.733Z,99893.53
2023-03-07T13:02:43.015Z,99935.44
2023-03-07T13:05:21.402Z,99932.47
2023-03-07T13:07:52.207Z,99933.72
2023-03-07T13:10:23.413Z,99892.47
2023-03-07T13:12:53.065Z,99934.63
2023-03-07T13:16:05.121Z,99931.88
2023-03-07T13:18:34.391Z,99938.91
2023-03-07T13:21:30.851Z,99871.28
2023-03-07T13:24:36.745Z,99928.56
2023-03-07T13:27:15.300Z,99895.75
2023-03-07T13:30:18.210Z,99874.97
2023-03-07T13:32:58.734Z,99937.72
2023-03-07T13:35:57.966Z,99884.31
2023-03-07T13:38:35.850Z,99923.22
2023-03-07T13:41:06.774Z,99939.06
2023-03-07T13:44:02.080Z,99922.22
2023-03-07T13:46:48.778Z,99949.03
2023-03-07T13:49:45.515Z,99921.88
2023-03-07T13:52:40.201Z,99960.66
2023-03-07T13:55:39.577Z,99968.56
2023-03-07T13:58:29.824Z,99970.09
2023-03-07T14:01:02.751Z,99971.75
2023-03-07T14:03:36.916Z,99944.91
2023-03-07T14:06:12.473Z,99931.91
2023-03-07T14:08:41.525Z,99988.81
2023-03-07T14:11:23.165Z,99950.63
2023-03-07T14:14:25.090Z,99991.59
2023-03-07T14:17:15.147Z,99998.00
2023-03-07T14:20:09.165Z,99977.00
2023-03-07T14:22:54.107Z,99995.66
2023-03-07T14:25:26.056Z,99991.66
2023-03-07T14:27:58.534Z,99981.56
2023-03-07T14:30:32.002Z,99992.41
2023-03-07T14:33:02.182Z,99990.72
2023-03-07T14:35:45.369Z,99972.53
2023-03-07T14:38:21.305Z,99963.22
2023-03-07T14:41:36.015Z,99986.84
2023-03-07T14:44:35.674Z,99956.13
2023-03-07T14:47:20.893Z,99998.25
2023-03-07T14:50:01.576Z,99987.03
2023-03-07T14:52:31.903Z,99992.06
2023-03-07T14:55:03.956Z,99992.97
2023-03-07T14:57:35.984Z,99998.44
2023-03-07T15:00:17.170Z,99976.38
2023-03-07T15:03:04.317Z,99962.78
2023-03-07T15:05:37.078Z,100003.47
2023-03-07T15:08:18.849Z,99959.09
2023-03-07T15:10:51.868Z,99947.72
2023-03-07T15:13:29.935Z,100010.66
2023-03-07T15:16:04.098Z,99969.25
2023-03-07T15:18:39.199Z,100009.13
2023-03-07T15:21:09.441Z,100015.88
2023-03-07T15:23:37.871Z,100006.50
2023-03-07T15:26:10.894Z,99991.59
2023-03-07T15:28:41.671Z,100022.19
2023-03-07T15:31:11.361Z,100024.81
2023-03-07T15:33:41.475Z,100028.63
2023-03-07T15:36:28.323Z,99983.63
2023-03-07T15:39:33.159Z,100002.88
2023-03-07T15:42:05.161Z,100009.22
2023-03-07T15:44:34.318Z,100035.22
2023-03-07T15:47:15.134Z,100029.84
2023-03-07T15:49:47.327Z,100021.97
2023-03-07T15:52:33.544Z,100043.59
2023-03-07T15:55:05.779Z,100032.88
2023-03-07T15:57:39.188Z,100022.91
2023-03-07T16:00:17.484Z,100044.13
2023-03-07T16:02:48.289Z,100049.88
2023-03-07T16:05:43.724Z,99968.28
2023-03-07T16:08:15.650Z,100012.75
2023-03-07T16:10:52.193Z,100041.84
2023-03-07T16:13:24.341Z,100026.41
2023-03-07T16:16:06.105Z,100044.28
2023-03-07T16:18:35.498Z,100013.25
2023-03-07T16:21:06.355Z,100043.63
2023-03-07T16:23:35.359Z,100047.78
2023-03-07T16:26:06.110Z,100047.50
2023-03-07T16:28:37.878Z,99996.75
2023-03-07T16:31:13.208Z,99988.16
2023-03-07T16:33:41.714Z,100046.16
2023-03-07T16:36:13.979Z,100053.41
2023-03-07T16:38:43.155Z,100057.06
2023-03-07T16:41:19.314Z,100060.53
2023-03-07T16:43:52.843Z,100035.59
2023-03-07T16:46:22.520Z,100062.03
2023-03-07T16:48:51.126Z,100064.88
2023-03-07T16:51:23.580Z,100042.66
2023-03-07T16:53:52.570Z,100058.34
2023-03-07T16:56:26.663Z,100008.06
2023-03-07T16:58:55.441Z,100057.19
2023-03-07T17:01:24.022Z,100034.19
2023-03-07T17:03:52.670Z,100067.59
2023-03-07T17:06:33.597Z,100033.81
2023-03-07T17:09:09.598Z,100019.69
2023-03-07T17:11:39.710Z,100015.88
2023-03-07T17:14:12.531Z,100042.16
2023-03-07T17:16:45.136Z,100068.19
2023-03-07T17:19:26.076Z,100046.47
2023-03-07T17:21:56.332Z,100081.94
2023-03-07T17:24:25.224Z,100064.91
2023-03-07T17:26:54.799Z,100082.84
2023-03-07T17:29:30.073Z,100090.53
2023-03-07T17:31:58.669Z,100074.94
2023-03-07T17:34:30.629Z,100072.03
2023-03-07T17:37:01.415Z,100099.94
2023-03-07T17:39:34.376Z,100105.50
2023-03-07T17:42:03.575Z,100114.06
2023-03-07T17:44:32.834Z,100079.75
2023-03-07T17:47:01.631Z,100102.81
2023-03-07T17:49:35.555Z,100074.25
2023-03-07T17:52:08.173Z,100114.94
2023-03-07T17:54:36.657Z,100108.38
2023-03-07T17:57:05.740Z,100113.78
2023-03-07T17:59:34.731Z,100113.28
2023-03-07T18:02:03.304Z,100096.13
2023-03-07T18:04:31.857Z,100114.44
2023-03-07T18:07:00.856Z,100070.34
2023-03-07T18:09:30.612Z,100111.94
2023-03-07T18:11:59.053Z,100121.91
2023-03-07T18:14:28.306Z,100051.66
2023-03-07T18:16:57.810Z,100134.19
2023-03-07T18:19:27.389Z,100137.09
2023-03-07T18:21:56.442Z,100146.31
2023-03-07T18:24:29.979Z,100151.13
2023-03-07T18:27:00.549Z,100151.75
2023-03-07T18:29:30.757Z,100149.22
2023-03-07T18:31:59.262Z,100125.69
2023-03-07T18:34:27.950Z,100174.81
2023-03-07T18:36:56.629Z,100149.03
2023-03-07T18:39:27.310Z,100133.88
2023-03-07T18:41:55.758Z,100164.28
2023-03-07T18:44:26.047Z,100158.16
2023-03-07T18:46:54.993Z,100164.28
2023-03-07T18:49:23.381Z,100152.59
2023-03-07T18:51:51.752Z,100161.84
2023-03-07T18:54:20.121Z,100170.53
2023-03-07T18:56:48.713Z,100136.25
2023-03-07T18:59:18.426Z,100099.81
2023-03-07T19:01:50.183Z,100156.47
2023-03-07T19:04:19.588Z,100147.41
2023-03-07T19:06:48.611Z,100145.41
2023-03-07T19:09:19.230Z,100156.38
2023-03-07T19:11:48.456Z,100162.25
2023-03-07T19:14:16.893Z,100167.13
2023-03-07T19:16:45.674Z,100167.72
2023-03-07T19:19:15.611Z,100175.50
2023-03-07T19:21:44.105Z,100138.94
2023-03-07T19:24:13.434Z,100187.69
2023-03-07T19:26:43.308Z,100156.97
2023-03-07T19:29:13.120Z,100188.16
2023-03-07T19:31:43.769Z,100181.06
2023-03-07T19:34:12.739Z,100200.94
2023-03-07T19:36:43.157Z,100198.91
2023-03-07T19:39:15.216Z,100197.84
2023-03-07T19:41:47.811Z,100199.84
2023-03-07T19:44:17.223Z,100190.91
2023-03-07T19:46:47.287Z,100148.09
2023-03-07T19:49:17.213Z,100175.66
2023-03-07T19:51:47.062Z,100200.56
2023-03-07T19:54:16.460Z,100200.53
2023-03-07T19:56:45.654Z,100197.56
2023-03-07T19:59:14.817Z,100145.09
2023-03-07T20:01:43.703Z,100176.53
2023-03-07T20:04:13.362Z,100201.63
2023-03-07T20:06:43.302Z,100180.84
2023-03-07T20:09:14.250Z,100202.34
2023-03-07T20:11:43.866Z,100172.09
2023-03-07T20:14:13.364Z,100212.91
2023-03-07T20:16:42.027Z,100173.91
2023-03-07T20:19:11.750Z,100133.41
2023-03-07T20:21:40.381Z,100180.75
2023-03-07T20:24:09.665Z,100213.16
2023-03-07T20:26:40.765Z,100192.00
2023-03-07T20:29:11.643Z,100207.75
2023-03-07T20:31:41.113Z,100208.22
2023-03-07T20:34:09.914Z,100209.28
2023-03-07T20:36:39.542Z,100157.81
2023-03-07T20:39:14.356Z,100207.28
2023-03-07T20:41:45.268Z,100167.06
2023-03-07T20:44:16.202Z,100219.56
2023-03-07T20:46:44.766Z,100208.91
2023-03-07T20:49:14.545Z,100189.41
2023-03-07T20:51:44.167Z,100218.81
2023-03-07T20:54:15.498Z,100196.56
2023-03-07T20:56:47.364Z,100178.53
2023-03-07T20:59:17.676Z,100183.72
2023-03-07T21:01:46.470Z,100224.47
2023-03-07T21:04:17.792Z,100224.91
2023-03-07T21:06:47.912Z,100231.94
2023-03-07T21:09:18.849Z,100233.63
2023-03-07T21:11:50.119Z,100231.56
2023-03-07T21:14:20.834Z,100233.13
2023-03-07T21:16:49.468Z,100234.88
2023-03-07T21:19:17.832Z,100218.19
2023-03-07T21:21:46.269Z,100225.69
2023-03-07T21:24:15.550Z,100232.63
2023-03-07T21:26:43.946Z,100230.13
2023-03-07T21:29:14.181Z,100235.56
2023-03-07T21:31:42.694Z,100238.84
2023-03-07T21:34:14.707Z,100219.16
2023-03-07T21:36:43.250Z,100215.69
2023-03-07T21:39:12.717Z,100222.41
2023-03-07T21:41:41.367Z,100235.19
2023-03-07T21:44:10.641Z,100243.56
2023-03-07T21:46:40.312Z,100248.09
2023-03-07T21:49:08.973Z,100262.03
2023-03-07T21:51:37.351Z,100252.81
2023-03-07T21:54:06.188Z,100246.13
2023-03-07T21:56:34.647Z,100246.94
2023-03-07T21:59:03.038Z,100253.88
2023-03-07T22:01:31.471Z,100250.50
2023-03-07T22:04:01.311Z,100254.09
2023-03-07T22:06:30.314Z,100213.41
2023-03-07T22:09:00.551Z,100251.25
2023-03-07T22:11:29.181Z,100255.22
2023-03-07T22:13:57.440Z,100247.47
2023-03-07T22:16:25.790Z,100252.09
2023-03-07T22:18:56.115Z,100256.59
2023-03-07T22:21:26.908Z,100238.97
2023-03-07T22:23:57.898Z,100247.47
2023-03-07T22:26:26.837Z,100230.38
2023-03-07T22:28:55.905Z,100238.34
2023-03-07T22:31:25.100Z,100260.13
2023-03-07T22:33:53.695Z,100221.66
2023-03-07T22:36:24.751Z,100216.13
2023-03-07T22:38:57.108Z,100237.63
2023-03-07T22:41:29.048Z,100266.56
2023-03-07T22:43:57.371Z,100269.19
2023-03-07T22:46:26.225Z,100261.09
2023-03-07T22:48:55.044Z,100268.22
2023-03-07T22:51:25.518Z,100234.44
2023-03-07T22:53:55.434Z,100264.41
2023-03-07T22:56:26.362Z,100222.09
2023-03-07T22:58:55.121Z,100254.97
2023-03-07T23:01:26.559Z,100234.56
2023-03-07T23:03:57.024Z,100254.59
2023-03-07T23:06:28.697Z,100258.03
2023-03-07T23:08:59.681Z,100185.81
2023-03-07T23:11:30.642Z,100235.47
2023-03-07T23:13:59.660Z,100241.59
2023-03-07T23:16:30.797Z,100235.28
2023-03-07T23:19:00.711Z,100232.84
2023-03-07T23:21:32.202Z,100233.50
2023-03-07T23:24:03.122Z,100230.56
2023-03-07T23:26:34.587Z,100233.00
2023-03-07T23:29:03.402Z,100231.66
2023-03-07T23:31:34.050Z,100196.63
2023-03-07T23:34:05.781Z,100183.41
2023-03-07T23:36:35.068Z,100198.50
2023-03-07T23:39:05.384Z,100200.63
2023-03-07T23:41:33.944Z,100219.28
2023-03-07T23:44:03.532Z,100231.41
2023-03-07T23:46:33.310Z,100232.28
2023-03-07T23:49:02.774Z,100228.28
2023-03-07T23:51:31.792Z,100200.72
2023-03-07T23:54:00.118Z,100218.22
2023-03-07T23:56:29.896Z,100218.09
2023-03-07T23:58:58.262Z,100221.69
